Main page
METAR-TAF:

METAR-TAF

Airports :

Montauk Airport

Montauk, New York, United States

latitude: 41-04-23N, longitude: 071-55-24W, elevation: 7 ft

Current weather observation

The report was made 6 minutes ago, at 09:54 UTC
Wind 3 mph from the South/Southwest
Temperature 39°F
Humidity 93%
Pressure 30.09 in. Hg

METAR: KMTP 240954Z AUTO 20003KT 04/03 A3009 RMK AO1 SLP188 T00390033

Time: 05:00 (10:00 UTC)


TAF: missing

Weather observations and forecasts of more than 4000 airports (METAR and TAF reports).

The available stations are represented by yellow and red dots on the map.

Hover mouse over dot to see the name of the station.

Then click to see weather observations and forecasts.

To change the map : click on the green buttons with a black cross to zoom in, on the green button with a dash to zoom out, or on the green arrows for adjacent maps.


METAR-TAF: